AFR66GC LFPG-LFLL
Flight info
| Callsign | AFR66GC |
|---|---|
| Flight time | 0h 44m |
| Altitude | 27000 |
| Route | OKASI DCT OKEKO DCT OKEPI DCT MOU |
| Aircraft | A320/M-SDE2E3FGIJ1RWY/HB1 |
Departure
| Time | 2026-05-05 19:14 |
|---|---|
| Airport | Charles de Gaulle International Airport (LFPG) |
Arrival
| Time | 2026-05-05 19:58 |
|---|---|
| Airport | Lyon Saint-Exupéry Airport (LFLL) |
| Time | Latitude | Longitude | Altitude | Speed | Heading |
|---|---|---|---|---|---|
| 2026-05-05 18:47 | 49.00617 | 2.58023 | 357 ft | 0 kts | 274° |
| 2026-05-05 19:02 | 49.00616 | 2.58051 | 358 ft | 4 kts | 274° |
| 2026-05-05 19:02 | 49.00614 | 2.58092 | 354 ft | 4 kts | 274° |
| 2026-05-05 19:02 | 49.00613 | 2.58124 | 354 ft | 4 kts | 282° |
| 2026-05-05 19:03 | 49.00603 | 2.58162 | 361 ft | 4 kts | 302° |
| 2026-05-05 19:03 | 49.00591 | 2.58190 | 357 ft | 0 kts | 300° |
| 2026-05-05 19:03 | 49.00591 | 2.58191 | 357 ft | 0 kts | 300° |
| 2026-05-05 19:05 | 49.00592 | 2.58188 | 356 ft | 2 kts | 300° |
| 2026-05-05 19:05 | 49.00614 | 2.58151 | 354 ft | 7 kts | 325° |
| 2026-05-05 19:05 | 49.00670 | 2.58137 | 354 ft | 9 kts | 356° |
| 2026-05-05 19:06 | 49.00736 | 2.58130 | 359 ft | 10 kts | 355° |
| 2026-05-05 19:06 | 49.00811 | 2.58119 | 354 ft | 11 kts | 354° |
| 2026-05-05 19:06 | 49.00893 | 2.58083 | 358 ft | 12 kts | 310° |
| 2026-05-05 19:06 | 49.00902 | 2.57978 | 354 ft | 8 kts | 266° |
| 2026-05-05 19:07 | 49.00898 | 2.57911 | 354 ft | 8 kts | 265° |
| 2026-05-05 19:07 | 49.00890 | 2.57768 | 360 ft | 18 kts | 265° |
| 2026-05-05 19:07 | 49.00881 | 2.57588 | 360 ft | 15 kts | 265° |
| 2026-05-05 19:07 | 49.00874 | 2.57452 | 359 ft | 14 kts | 265° |
| 2026-05-05 19:08 | 49.00864 | 2.57301 | 354 ft | 13 kts | 264° |
| 2026-05-05 19:08 | 49.00856 | 2.57149 | 359 ft | 13 kts | 266° |
| 2026-05-05 19:08 | 49.00849 | 2.57006 | 360 ft | 17 kts | 265° |
| 2026-05-05 19:08 | 49.00838 | 2.56803 | 357 ft | 18 kts | 265° |
| 2026-05-05 19:09 | 49.00828 | 2.56621 | 354 ft | 17 kts | 265° |
| 2026-05-05 19:09 | 49.00813 | 2.56416 | 360 ft | 25 kts | 262° |
| 2026-05-05 19:09 | 49.00788 | 2.56145 | 357 ft | 25 kts | 262° |
| 2026-05-05 19:09 | 49.00765 | 2.55895 | 361 ft | 23 kts | 261° |
| 2026-05-05 19:10 | 49.00743 | 2.55666 | 354 ft | 23 kts | 263° |
| 2026-05-05 19:10 | 49.00725 | 2.55420 | 358 ft | 22 kts | 264° |
| 2026-05-05 19:10 | 49.00656 | 2.55254 | 354 ft | 16 kts | 191° |
| 2026-05-05 19:10 | 49.00518 | 2.55299 | 358 ft | 28 kts | 164° |
| 2026-05-05 19:11 | 49.00326 | 2.55382 | 356 ft | 27 kts | 164° |
| 2026-05-05 19:11 | 49.00152 | 2.55458 | 356 ft | 24 kts | 164° |
| 2026-05-05 19:11 | 49.00006 | 2.55521 | 354 ft | 19 kts | 164° |
| 2026-05-05 19:11 | 48.99898 | 2.55587 | 354 ft | 15 kts | 146° |
| 2026-05-05 19:12 | 48.99844 | 2.55698 | 354 ft | 11 kts | 113° |
| 2026-05-05 19:12 | 48.99814 | 2.55783 | 357 ft | 7 kts | 138° |
| 2026-05-05 19:12 | 48.99746 | 2.55808 | 356 ft | 15 kts | 175° |
| 2026-05-05 19:12 | 48.99657 | 2.55819 | 357 ft | 14 kts | 175° |
| 2026-05-05 19:13 | 48.99606 | 2.55926 | 353 ft | 14 kts | 86° |
| 2026-05-05 19:13 | 48.99625 | 2.56294 | 363 ft | 69 kts | 86° |
| 2026-05-05 19:13 | 48.99683 | 2.57373 | 351 ft | 132 kts | 85° |
| 2026-05-05 19:13 | 48.99762 | 2.58992 | 560 ft | 162 kts | 82° |
| 2026-05-05 19:14 | 48.99849 | 2.60683 | 1360 ft | 160 kts | 81° |
| 2026-05-05 19:14 | 48.99940 | 2.62366 | 2130 ft | 159 kts | 80° |
| 2026-05-05 19:14 | 49.00030 | 2.64049 | 2808 ft | 160 kts | 83° |
| 2026-05-05 19:14 | 49.00123 | 2.65738 | 3391 ft | 160 kts | 83° |
| 2026-05-05 19:15 | 49.00218 | 2.67487 | 3817 ft | 176 kts | 83° |
| 2026-05-05 19:15 | 49.00325 | 2.69459 | 4114 ft | 198 kts | 82° |
| 2026-05-05 19:15 | 49.00443 | 2.71671 | 4403 ft | 222 kts | 83° |
| 2026-05-05 19:15 | 49.00569 | 2.74148 | 4767 ft | 246 kts | 84° |
| 2026-05-05 19:16 | 49.00707 | 2.76861 | 5267 ft | 264 kts | 86° |
| 2026-05-05 19:16 | 49.00581 | 2.79689 | 6067 ft | 271 kts | 98° |
| 2026-05-05 19:16 | 49.00288 | 2.82547 | 6896 ft | 275 kts | 99° |
| 2026-05-05 19:16 | 48.99976 | 2.85438 | 7745 ft | 278 kts | 100° |
| 2026-05-05 19:17 | 48.99656 | 2.88364 | 8585 ft | 282 kts | 101° |
| 2026-05-05 19:17 | 48.99332 | 2.91320 | 9429 ft | 285 kts | 101° |
| 2026-05-05 19:17 | 48.99004 | 2.94331 | 10147 ft | 293 kts | 102° |
| 2026-05-05 19:17 | 48.98443 | 2.97416 | 10397 ft | 314 kts | 118° |
| 2026-05-05 19:18 | 48.97064 | 3.00036 | 10870 ft | 323 kts | 143° |
| 2026-05-05 19:18 | 48.95061 | 3.01539 | 11542 ft | 325 kts | 168° |
| 2026-05-05 19:18 | 48.92808 | 3.01601 | 12205 ft | 328 kts | 194° |
| 2026-05-05 19:18 | 48.90725 | 3.00208 | 12939 ft | 330 kts | 212° |
| 2026-05-05 19:19 | 48.88765 | 2.98377 | 13688 ft | 332 kts | 213° |
| 2026-05-05 19:19 | 48.86796 | 2.96505 | 14337 ft | 336 kts | 213° |
| 2026-05-05 19:19 | 48.84750 | 2.94551 | 15024 ft | 339 kts | 212° |
| 2026-05-05 19:19 | 48.82804 | 2.92705 | 15674 ft | 341 kts | 212° |
| 2026-05-05 19:20 | 48.80803 | 2.90813 | 16322 ft | 344 kts | 212° |
| 2026-05-05 19:20 | 48.78732 | 2.88860 | 16976 ft | 347 kts | 212° |
| 2026-05-05 19:20 | 48.76557 | 2.87210 | 17465 ft | 354 kts | 197° |
| 2026-05-05 19:20 | 48.74106 | 2.86692 | 18055 ft | 359 kts | 178° |
| 2026-05-05 19:21 | 48.71560 | 2.87458 | 18622 ft | 364 kts | 165° |
| 2026-05-05 19:21 | 48.69089 | 2.88550 | 19182 ft | 367 kts | 164° |
| 2026-05-05 19:21 | 48.66754 | 2.89601 | 19704 ft | 369 kts | 163° |
| 2026-05-05 19:21 | 48.64287 | 2.90717 | 20268 ft | 372 kts | 163° |
| 2026-05-05 19:22 | 48.61792 | 2.91837 | 20821 ft | 375 kts | 163° |
| 2026-05-05 19:22 | 48.59310 | 2.92939 | 21335 ft | 378 kts | 163° |
| 2026-05-05 19:22 | 48.56772 | 2.94060 | 21868 ft | 382 kts | 163° |
| 2026-05-05 19:22 | 48.54213 | 2.95185 | 22406 ft | 385 kts | 163° |
| 2026-05-05 19:23 | 48.51617 | 2.96255 | 22932 ft | 388 kts | 164° |
| 2026-05-05 19:23 | 48.48993 | 2.97265 | 23431 ft | 391 kts | 165° |
| 2026-05-05 19:23 | 48.46336 | 2.98252 | 23858 ft | 394 kts | 165° |
| 2026-05-05 19:23 | 48.43661 | 2.99235 | 24279 ft | 397 kts | 165° |
| 2026-05-05 19:24 | 48.40979 | 3.00224 | 24699 ft | 399 kts | 165° |
| 2026-05-05 19:24 | 48.38267 | 3.01231 | 25114 ft | 401 kts | 165° |
| 2026-05-05 19:24 | 48.35556 | 3.02246 | 25555 ft | 402 kts | 165° |
| 2026-05-05 19:24 | 48.32839 | 3.03271 | 25960 ft | 404 kts | 165° |
| 2026-05-05 19:25 | 48.30106 | 3.04308 | 26353 ft | 406 kts | 165° |
| 2026-05-05 19:25 | 48.27361 | 3.05351 | 26717 ft | 408 kts | 165° |
| 2026-05-05 19:25 | 48.24610 | 3.06394 | 26811 ft | 404 kts | 165° |
| 2026-05-05 19:25 | 48.21930 | 3.07409 | 26824 ft | 391 kts | 165° |
| 2026-05-05 19:26 | 48.19309 | 3.08400 | 26824 ft | 387 kts | 165° |
| 2026-05-05 19:26 | 48.16697 | 3.09385 | 26830 ft | 385 kts | 165° |
| 2026-05-05 19:26 | 48.14107 | 3.10357 | 26827 ft | 384 kts | 165° |
| 2026-05-05 19:26 | 48.11520 | 3.11325 | 26827 ft | 383 kts | 165° |
| 2026-05-05 19:27 | 48.08938 | 3.12292 | 26831 ft | 383 kts | 165° |
| 2026-05-05 19:27 | 48.06347 | 3.13264 | 26833 ft | 383 kts | 165° |
| 2026-05-05 19:27 | 48.03766 | 3.14233 | 26832 ft | 383 kts | 165° |
| 2026-05-05 19:27 | 48.01178 | 3.15204 | 26838 ft | 384 kts | 165° |
| 2026-05-05 19:28 | 47.98583 | 3.16175 | 26841 ft | 384 kts | 165° |
| 2026-05-05 19:28 | 47.95989 | 3.17145 | 26851 ft | 384 kts | 166° |
| 2026-05-05 19:28 | 47.93374 | 3.18121 | 26841 ft | 394 kts | 166° |
| 2026-05-05 19:28 | 47.90674 | 3.19126 | 26843 ft | 407 kts | 166° |
| 2026-05-05 19:29 | 47.87889 | 3.20161 | 26843 ft | 418 kts | 166° |
| 2026-05-05 19:29 | 47.85034 | 3.21223 | 26838 ft | 428 kts | 166° |
| 2026-05-05 19:29 | 47.82120 | 3.22303 | 26843 ft | 437 kts | 166° |
| 2026-05-05 19:29 | 47.79142 | 3.23403 | 26843 ft | 444 kts | 166° |
| 2026-05-05 19:30 | 47.76122 | 3.24517 | 26843 ft | 449 kts | 166° |
| 2026-05-05 19:30 | 47.73081 | 3.25641 | 26846 ft | 450 kts | 166° |
| 2026-05-05 19:30 | 47.70045 | 3.26763 | 26847 ft | 450 kts | 166° |
| 2026-05-05 19:30 | 47.67003 | 3.27885 | 26849 ft | 451 kts | 166° |
| 2026-05-05 19:31 | 47.63956 | 3.29007 | 26849 ft | 451 kts | 166° |
| 2026-05-05 19:31 | 47.60911 | 3.30126 | 26850 ft | 451 kts | 166° |
| 2026-05-05 19:31 | 47.57873 | 3.31242 | 26858 ft | 451 kts | 166° |
| 2026-05-05 19:31 | 47.54828 | 3.32362 | 26848 ft | 451 kts | 166° |
| 2026-05-05 19:32 | 47.51787 | 3.33482 | 26852 ft | 450 kts | 166° |
| 2026-05-05 19:32 | 47.48741 | 3.34600 | 26854 ft | 450 kts | 167° |
| 2026-05-05 19:32 | 47.45707 | 3.35713 | 26858 ft | 450 kts | 167° |
| 2026-05-05 19:32 | 47.42667 | 3.36824 | 26853 ft | 450 kts | 167° |
| 2026-05-05 19:33 | 47.39619 | 3.37934 | 26825 ft | 453 kts | 167° |
| 2026-05-05 19:33 | 47.36550 | 3.39048 | 26828 ft | 454 kts | 167° |
| 2026-05-05 19:33 | 47.33475 | 3.40162 | 26829 ft | 456 kts | 167° |
| 2026-05-05 19:33 | 47.30392 | 3.41281 | 26821 ft | 457 kts | 167° |
| 2026-05-05 19:34 | 47.27295 | 3.42410 | 26472 ft | 459 kts | 167° |
| 2026-05-05 19:34 | 47.24194 | 3.43542 | 26034 ft | 460 kts | 167° |
| 2026-05-05 19:34 | 47.21115 | 3.44659 | 25610 ft | 462 kts | 167° |
| 2026-05-05 19:35 | 47.14985 | 3.46875 | 24766 ft | 436 kts | 167° |
| 2026-05-05 19:35 | 47.13051 | 3.47581 | 24503 ft | 427 kts | 167° |
| 2026-05-05 19:35 | 47.10222 | 3.48627 | 24253 ft | 413 kts | 168° |
| 2026-05-05 19:35 | 47.06576 | 3.49983 | 23938 ft | 405 kts | 168° |
| 2026-05-05 19:36 | 47.03852 | 3.50996 | 23690 ft | 403 kts | 168° |
| 2026-05-05 19:36 | 47.01138 | 3.52001 | 23461 ft | 402 kts | 168° |
| 2026-05-05 19:36 | 46.98430 | 3.53003 | 23188 ft | 400 kts | 168° |
| 2026-05-05 19:36 | 46.96610 | 3.53674 | 23004 ft | 399 kts | 168° |
| 2026-05-05 19:37 | 46.93921 | 3.54666 | 22726 ft | 398 kts | 168° |
| 2026-05-05 19:37 | 46.91241 | 3.55651 | 22455 ft | 397 kts | 168° |
| 2026-05-05 19:37 | 46.88565 | 3.56633 | 22178 ft | 395 kts | 168° |
| 2026-05-05 19:37 | 46.85904 | 3.57608 | 21909 ft | 394 kts | 168° |
| 2026-05-05 19:38 | 46.83254 | 3.58575 | 21642 ft | 392 kts | 168° |
| 2026-05-05 19:38 | 46.80609 | 3.59536 | 21383 ft | 391 kts | 168° |
| 2026-05-05 19:38 | 46.77974 | 3.60494 | 21116 ft | 390 kts | 168° |
| 2026-05-05 19:38 | 46.75369 | 3.61561 | 20843 ft | 389 kts | 163° |
| 2026-05-05 19:39 | 46.72814 | 3.62854 | 20578 ft | 388 kts | 162° |
| 2026-05-05 19:39 | 46.70279 | 3.64198 | 20317 ft | 387 kts | 162° |
| 2026-05-05 19:39 | 46.67757 | 3.65567 | 20064 ft | 386 kts | 161° |
| 2026-05-05 19:39 | 46.65244 | 3.66935 | 19820 ft | 385 kts | 161° |
| 2026-05-05 19:40 | 46.62738 | 3.68288 | 19565 ft | 384 kts | 161° |
| 2026-05-05 19:40 | 46.60237 | 3.69628 | 19309 ft | 382 kts | 162° |
| 2026-05-05 19:40 | 46.57743 | 3.70956 | 19072 ft | 381 kts | 162° |
| 2026-05-05 19:40 | 46.55286 | 3.72258 | 18831 ft | 380 kts | 162° |
| 2026-05-05 19:41 | 46.52774 | 3.73585 | 18594 ft | 379 kts | 162° |
| 2026-05-05 19:41 | 46.50300 | 3.74888 | 18351 ft | 378 kts | 162° |
| 2026-05-05 19:41 | 46.47833 | 3.76184 | 18119 ft | 376 kts | 162° |
| 2026-05-05 19:41 | 46.45373 | 3.77476 | 17844 ft | 375 kts | 162° |
| 2026-05-05 19:42 | 46.42956 | 3.78748 | 17578 ft | 374 kts | 162° |
| 2026-05-05 19:42 | 46.40476 | 3.80054 | 17294 ft | 373 kts | 162° |
| 2026-05-05 19:42 | 46.38097 | 3.81411 | 17028 ft | 373 kts | 155° |
| 2026-05-05 19:42 | 46.35952 | 3.83523 | 16764 ft | 376 kts | 139° |
| 2026-05-05 19:43 | 46.34258 | 3.86409 | 16513 ft | 378 kts | 129° |
| 2026-05-05 19:43 | 46.32681 | 3.89436 | 16250 ft | 377 kts | 129° |
| 2026-05-05 19:43 | 46.31112 | 3.92472 | 15992 ft | 376 kts | 129° |
| 2026-05-05 19:43 | 46.29552 | 3.95501 | 15733 ft | 375 kts | 129° |
| 2026-05-05 19:44 | 46.28000 | 3.98517 | 15479 ft | 373 kts | 129° |
| 2026-05-05 19:44 | 46.26645 | 4.01722 | 15216 ft | 375 kts | 117° |
| 2026-05-05 19:44 | 46.25553 | 4.05137 | 14968 ft | 374 kts | 117° |
| 2026-05-05 19:44 | 46.24473 | 4.08546 | 14719 ft | 373 kts | 117° |
| 2026-05-05 19:45 | 46.23396 | 4.11958 | 14477 ft | 372 kts | 116° |
| 2026-05-05 19:45 | 46.22327 | 4.15349 | 14226 ft | 371 kts | 117° |
| 2026-05-05 19:45 | 46.21242 | 4.18779 | 13985 ft | 370 kts | 117° |
| 2026-05-05 19:45 | 46.20184 | 4.22110 | 13747 ft | 369 kts | 117° |
| 2026-05-05 19:46 | 46.19114 | 4.25474 | 13483 ft | 368 kts | 117° |
| 2026-05-05 19:46 | 46.18051 | 4.28822 | 13201 ft | 359 kts | 117° |
| 2026-05-05 19:46 | 46.17029 | 4.32029 | 12945 ft | 350 kts | 117° |
| 2026-05-05 19:46 | 46.16022 | 4.35180 | 12688 ft | 341 kts | 117° |
| 2026-05-05 19:47 | 46.15045 | 4.38243 | 12416 ft | 333 kts | 117° |
| 2026-05-05 19:47 | 46.14089 | 4.41237 | 12149 ft | 324 kts | 117° |
| 2026-05-05 19:47 | 46.13156 | 4.44152 | 11900 ft | 317 kts | 117° |
| 2026-05-05 19:47 | 46.12238 | 4.47013 | 11639 ft | 310 kts | 117° |
| 2026-05-05 19:48 | 46.11329 | 4.49839 | 11381 ft | 304 kts | 117° |
| 2026-05-05 19:48 | 46.10454 | 4.52554 | 11133 ft | 300 kts | 117° |
| 2026-05-05 19:48 | 46.09567 | 4.55299 | 10879 ft | 297 kts | 117° |
| 2026-05-05 19:48 | 46.08709 | 4.57960 | 10636 ft | 296 kts | 117° |
| 2026-05-05 19:49 | 46.07841 | 4.60648 | 10382 ft | 296 kts | 117° |
| 2026-05-05 19:49 | 46.06977 | 4.63332 | 10149 ft | 294 kts | 117° |
| 2026-05-05 19:49 | 46.06118 | 4.65994 | 9905 ft | 293 kts | 117° |
| 2026-05-05 19:49 | 46.05260 | 4.68644 | 9667 ft | 292 kts | 117° |
| 2026-05-05 19:50 | 46.04405 | 4.71288 | 9331 ft | 290 kts | 117° |
| 2026-05-05 19:50 | 46.03555 | 4.73915 | 8997 ft | 289 kts | 117° |
| 2026-05-05 19:50 | 46.02705 | 4.76540 | 8593 ft | 288 kts | 117° |
| 2026-05-05 19:50 | 46.01859 | 4.79147 | 8190 ft | 287 kts | 117° |
| 2026-05-05 19:51 | 46.01014 | 4.81746 | 7782 ft | 286 kts | 117° |
| 2026-05-05 19:51 | 46.00169 | 4.84338 | 7363 ft | 286 kts | 117° |
| 2026-05-05 19:51 | 45.99325 | 4.86920 | 6944 ft | 286 kts | 117° |
| 2026-05-05 19:51 | 45.98477 | 4.89512 | 6510 ft | 287 kts | 117° |
| 2026-05-05 19:52 | 45.97638 | 4.92080 | 6200 ft | 282 kts | 117° |
| 2026-05-05 19:52 | 45.96800 | 4.94650 | 5728 ft | 282 kts | 116° |
| 2026-05-05 19:52 | 45.95980 | 4.97160 | 5215 ft | 275 kts | 116° |
| 2026-05-05 19:52 | 45.95170 | 4.99641 | 4775 ft | 273 kts | 116° |
| 2026-05-05 19:53 | 45.94364 | 5.02102 | 4685 ft | 273 kts | 117° |
| 2026-05-05 19:53 | 45.93375 | 5.04343 | 4605 ft | 256 kts | 133° |
| 2026-05-05 19:53 | 45.92083 | 5.05948 | 4393 ft | 241 kts | 150° |
| 2026-05-05 19:53 | 45.90589 | 5.06932 | 4135 ft | 234 kts | 166° |
| 2026-05-05 19:54 | 45.88998 | 5.07295 | 3841 ft | 231 kts | 177° |
| 2026-05-05 19:54 | 45.87403 | 5.07488 | 3536 ft | 229 kts | 176° |
| 2026-05-05 19:54 | 45.85824 | 5.07682 | 3236 ft | 223 kts | 176° |
| 2026-05-05 19:54 | 45.84320 | 5.07867 | 2943 ft | 211 kts | 176° |
| 2026-05-05 19:55 | 45.82907 | 5.08040 | 2705 ft | 196 kts | 176° |
| 2026-05-05 19:55 | 45.81597 | 5.08200 | 2427 ft | 183 kts | 176° |
| 2026-05-05 19:55 | 45.80375 | 5.08349 | 2179 ft | 170 kts | 176° |
| 2026-05-05 19:55 | 45.79253 | 5.08486 | 1967 ft | 153 kts | 176° |
| 2026-05-05 19:56 | 45.78235 | 5.08610 | 1760 ft | 143 kts | 176° |
| 2026-05-05 19:56 | 45.77259 | 5.08726 | 1532 ft | 139 kts | 175° |
| 2026-05-05 19:56 | 45.76299 | 5.08841 | 1348 ft | 138 kts | 175° |
| 2026-05-05 19:56 | 45.75351 | 5.08955 | 1179 ft | 136 kts | 175° |
| 2026-05-05 19:57 | 45.74410 | 5.09083 | 1008 ft | 135 kts | 175° |
| 2026-05-05 19:57 | 45.73794 | 5.09155 | 888 ft | 133 kts | 175° |
| 2026-05-05 19:57 | 45.72637 | 5.09297 | 808 ft | 104 kts | 175° |
| 2026-05-05 19:57 | 45.72086 | 5.09360 | 812 ft | 54 kts | 175° |
| 2026-05-05 19:58 | 45.71806 | 5.09352 | 819 ft | 35 kts | 195° |
| 2026-05-05 19:58 | 45.71645 | 5.09217 | 817 ft | 18 kts | 254° |
| 2026-05-05 19:58 | 45.71631 | 5.09109 | 814 ft | 0 kts | 265° |
| 2026-05-05 19:59 | 45.71630 | 5.09074 | 814 ft | 12 kts | 267° |
| 2026-05-05 19:59 | 45.71619 | 5.08895 | 814 ft | 20 kts | 264° |
| 2026-05-05 19:59 | 45.71608 | 5.08739 | 809 ft | 9 kts | 265° |
| 2026-05-05 19:59 | 45.71603 | 5.08654 | 806 ft | 9 kts | 265° |
| 2026-05-05 20:00 | 45.71597 | 5.08545 | 804 ft | 13 kts | 275° |
| 2026-05-05 20:00 | 45.71668 | 5.08489 | 802 ft | 12 kts | 332° |
| 2026-05-05 20:00 | 45.71681 | 5.08372 | 800 ft | 15 kts | 264° |
| 2026-05-05 20:00 | 45.71680 | 5.08223 | 801 ft | 15 kts | 283° |
| 2026-05-05 20:01 | 45.71727 | 5.08100 | 798 ft | 15 kts | 321° |
| 2026-05-05 20:01 | 45.71786 | 5.08042 | 797 ft | 2 kts | 336° |
| 2026-05-05 20:01 | 45.71796 | 5.08036 | 797 ft | 0 kts | 336° |